createdAt,value
2023-04-22T00:02:06.522Z,20.77
2023-04-22T00:04:35.342Z,20.77
2023-04-22T00:07:06.465Z,20.78
2023-04-22T00:09:34.603Z,20.78
2023-04-22T00:12:03.004Z,20.76
2023-04-22T00:14:30.937Z,20.77
2023-04-22T00:16:59.169Z,20.76
2023-04-22T00:19:28.508Z,20.76
2023-04-22T00:21:59.059Z,20.75
2023-04-22T00:24:30.794Z,20.75
2023-04-22T00:26:58.815Z,20.76
2023-04-22T00:29:27.087Z,20.76
2023-04-22T00:31:57.486Z,20.74
2023-04-22T00:34:25.707Z,20.75
2023-04-22T00:36:55.212Z,20.74
2023-04-22T00:39:23.249Z,20.74
2023-04-22T00:41:51.321Z,20.73
2023-04-22T00:44:19.622Z,20.73
2023-04-22T00:46:48.290Z,20.72
2023-04-22T00:49:17.088Z,20.72
2023-04-22T00:51:44.990Z,20.73
2023-04-22T00:54:16.553Z,20.72
2023-04-22T00:56:44.819Z,20.74
2023-04-22T00:59:12.944Z,20.74
2023-04-22T01:01:41.104Z,20.75
2023-04-22T01:04:12.255Z,20.74
2023-04-22T01:06:42.193Z,20.76
2023-04-22T01:09:10.310Z,20.74
2023-04-22T01:11:39.672Z,20.75
2023-04-22T01:14:07.769Z,20.75
2023-04-22T01:16:39.140Z,20.74
2023-04-22T01:19:09.633Z,20.75
2023-04-22T01:21:39.724Z,20.75
2023-04-22T01:24:10.154Z,20.73
2023-04-22T01:26:38.552Z,20.73
2023-04-22T01:29:09.173Z,20.73
2023-04-22T01:31:38.998Z,20.73
2023-04-22T01:34:07.176Z,20.73
2023-04-22T01:36:35.268Z,20.73
2023-04-22T01:39:03.443Z,20.72
2023-04-22T01:41:32.876Z,20.71
2023-04-22T01:44:03.796Z,20.69
2023-04-22T01:46:31.885Z,20.69
2023-04-22T01:48:59.911Z,20.69
2023-04-22T01:51:31.711Z,20.69
2023-04-22T01:53:59.804Z,20.68
2023-04-22T01:56:31.830Z,20.67
2023-04-22T01:58:59.860Z,20.67
2023-04-22T02:01:27.778Z,20.67
2023-04-22T02:03:55.834Z,20.65
2023-04-22T02:06:23.835Z,20.65
2023-04-22T02:08:51.927Z,20.65
2023-04-22T02:11:19.930Z,20.65
2023-04-22T02:13:49.968Z,20.64
2023-04-22T02:16:18.087Z,20.64
2023-04-22T02:18:46.091Z,20.64
2023-04-22T02:21:14.155Z,20.63
2023-04-22T02:23:47.065Z,20.63
2023-04-22T02:26:15.059Z,20.61
2023-04-22T02:28:43.107Z,20.61
2023-04-22T02:31:12.440Z,20.60
2023-04-22T02:33:43.115Z,20.61
2023-04-22T02:36:11.127Z,20.60
2023-04-22T02:38:39.203Z,20.61
2023-04-22T02:41:07.208Z,20.60
2023-04-22T02:43:35.091Z,20.59
2023-04-22T02:46:03.077Z,20.59
2023-04-22T02:48:32.405Z,20.59
2023-04-22T02:51:00.444Z,20.59
2023-04-22T02:53:28.380Z,20.55
2023-04-22T02:55:56.993Z,20.57
2023-04-22T02:58:26.217Z,20.57
2023-04-22T03:00:54.479Z,20.58
2023-04-22T03:03:22.724Z,20.57
2023-04-22T03:05:52.230Z,20.55
2023-04-22T03:08:20.576Z,20.55
2023-04-22T03:10:48.473Z,20.54
2023-04-22T03:13:16.430Z,20.54
2023-04-22T03:15:44.485Z,20.54
2023-04-22T03:18:12.687Z,20.54
2023-04-22T03:20:40.733Z,20.54
2023-04-22T03:23:10.074Z,20.54
2023-04-22T03:25:38.034Z,20.53
2023-04-22T03:28:08.763Z,20.53
2023-04-22T03:30:36.769Z,20.53
2023-04-22T03:33:07.857Z,20.53
2023-04-22T03:35:35.916Z,20.51
2023-04-22T03:38:03.873Z,20.52
2023-04-22T03:40:35.871Z,20.51
2023-04-22T03:43:04.624Z,20.50
2023-04-22T03:45:32.620Z,20.49
2023-04-22T03:48:00.663Z,20.49
2023-04-22T03:50:31.474Z,20.49
2023-04-22T03:52:59.464Z,20.49
2023-04-22T03:55:27.448Z,20.48
2023-04-22T03:57:56.825Z,20.49
2023-04-22T04:00:24.801Z,20.47
2023-04-22T04:02:52.923Z,20.48
2023-04-22T04:05:21.371Z,20.48
2023-04-22T04:07:49.307Z,20.47
2023-04-22T04:10:17.284Z,20.47
2023-04-22T04:12:45.211Z,20.45
2023-04-22T04:15:19.257Z,20.46
2023-04-22T04:17:48.161Z,20.46
2023-04-22T04:20:16.625Z,20.46
2023-04-22T04:22:44.625Z,20.46
2023-04-22T04:25:12.599Z,20.45
2023-04-22T04:27:41.613Z,20.45
2023-04-22T04:30:10.804Z,20.45
2023-04-22T04:32:40.180Z,20.44
2023-04-22T04:35:08.920Z,20.43
2023-04-22T04:37:37.152Z,20.42
2023-04-22T04:40:06.106Z,20.40
2023-04-22T04:42:34.535Z,20.39
2023-04-22T04:45:02.545Z,20.39
2023-04-22T04:47:33.922Z,20.39
2023-04-22T04:50:06.582Z,20.41
2023-04-22T04:52:34.654Z,20.40
2023-04-22T04:55:02.591Z,20.41
2023-04-22T04:57:33.497Z,20.39
2023-04-22T05:00:01.697Z,20.39
2023-04-22T05:02:32.528Z,20.39
2023-04-22T05:05:00.613Z,20.39
2023-04-22T05:07:30.100Z,20.37
2023-04-22T05:09:58.180Z,20.37
2023-04-22T05:12:26.392Z,20.36
2023-04-22T05:14:54.643Z,20.36
2023-04-22T05:17:25.208Z,20.34
2023-04-22T05:19:53.245Z,20.36
2023-04-22T05:22:21.226Z,20.35
2023-04-22T05:24:50.536Z,20.34
2023-04-22T05:27:18.909Z,20.35
2023-04-22T05:29:49.354Z,20.35
2023-04-22T05:32:20.444Z,20.33
2023-04-22T05:34:48.530Z,20.33
2023-04-22T05:37:16.530Z,20.32
2023-04-22T05:39:44.408Z,20.33
2023-04-22T05:42:13.712Z,20.33
2023-04-22T05:44:41.627Z,20.31
2023-04-22T05:47:09.715Z,20.32
2023-04-22T05:49:37.910Z,20.31
2023-04-22T05:52:06.106Z,20.31
2023-04-22T05:54:34.127Z,20.33
2023-04-22T05:57:02.514Z,20.33
2023-04-22T05:59:34.419Z,20.32
2023-04-22T06:02:02.571Z,20.33
2023-04-22T06:04:32.315Z,20.31
2023-04-22T06:07:01.681Z,20.32
2023-04-22T06:09:29.648Z,20.33
2023-04-22T06:11:58.203Z,20.33
2023-04-22T06:14:28.247Z,20.33
2023-04-22T06:16:57.572Z,20.33
2023-04-22T06:19:28.416Z,20.33
2023-04-22T06:21:56.417Z,20.34
2023-04-22T06:24:24.340Z,20.33
2023-04-22T06:26:52.264Z,20.32
2023-04-22T06:29:20.249Z,20.33
2023-04-22T06:31:48.302Z,20.33
2023-04-22T06:34:17.693Z,20.32
2023-04-22T06:36:45.758Z,20.34
2023-04-22T06:39:13.706Z,20.34
2023-04-22T06:41:44.301Z,20.35
2023-04-22T06:44:13.919Z,20.35
2023-04-22T06:46:41.867Z,20.35
2023-04-22T06:49:10.038Z,20.36
2023-04-22T06:51:39.419Z,20.37
2023-04-22T06:54:07.448Z,20.39
2023-04-22T06:56:36.125Z,20.42
2023-04-22T06:59:04.133Z,20.43
2023-04-22T07:01:32.112Z,20.45
2023-04-22T07:04:00.241Z,20.46
2023-04-22T07:06:28.320Z,20.48
2023-04-22T07:08:57.608Z,20.50
2023-04-22T07:11:26.355Z,20.51
2023-04-22T07:13:54.314Z,20.53
2023-04-22T07:16:22.264Z,20.55
2023-04-22T07:18:50.277Z,20.57
2023-04-22T07:21:18.277Z,20.57
2023-04-22T07:23:46.213Z,20.59
2023-04-22T07:26:15.736Z,20.60
2023-04-22T07:28:43.656Z,20.61
2023-04-22T07:31:11.772Z,20.62
2023-04-22T07:33:39.974Z,20.63
2023-04-22T07:36:08.273Z,20.63
2023-04-22T07:38:36.357Z,20.64
2023-04-22T07:41:04.337Z,20.65
2023-04-22T07:43:33.643Z,20.65
2023-04-22T07:46:04.188Z,20.66
2023-04-22T07:48:32.120Z,20.67
2023-04-22T07:51:00.107Z,20.67
2023-04-22T07:53:28.040Z,20.67
2023-04-22T07:55:56.775Z,20.68
2023-04-22T07:58:24.795Z,20.68
2023-04-22T08:00:54.142Z,20.66
2023-04-22T08:03:25.180Z,20.67
2023-04-22T08:05:58.162Z,20.68
2023-04-22T08:08:28.960Z,20.68
2023-04-22T08:10:58.085Z,20.70
2023-04-22T08:13:26.230Z,20.70
2023-04-22T08:15:55.612Z,20.70
2023-04-22T08:18:23.762Z,20.72
2023-04-22T08:20:51.649Z,20.73
2023-04-22T08:23:19.639Z,20.73
2023-04-22T08:25:47.949Z,20.73
2023-04-22T08:28:16.265Z,20.74
2023-04-22T08:30:44.229Z,20.74
2023-04-22T08:33:13.540Z,20.74
2023-04-22T08:35:41.893Z,20.74
2023-04-22T08:38:09.943Z,20.75
2023-04-22T08:40:41.533Z,20.76
2023-04-22T08:43:10.113Z,20.75
2023-04-22T08:45:40.443Z,20.76
2023-04-22T08:48:09.814Z,20.75
2023-04-22T08:50:40.625Z,20.75
2023-04-22T08:53:08.713Z,20.76
2023-04-22T08:55:37.385Z,20.75
2023-04-22T08:58:06.235Z,20.76
2023-04-22T09:00:34.995Z,20.76
2023-04-22T09:03:04.151Z,20.74
2023-04-22T09:05:34.830Z,20.75
2023-04-22T09:08:04.588Z,20.75
2023-04-22T09:10:34.242Z,20.73
2023-04-22T09:13:04.545Z,20.74
2023-04-22T09:15:32.653Z,20.73
2023-04-22T09:18:00.792Z,20.74
2023-04-22T09:20:31.661Z,20.72
2023-04-22T09:23:05.611Z,20.72
2023-04-22T09:25:36.304Z,20.73
2023-04-22T09:28:04.348Z,20.74
2023-04-22T09:30:33.796Z,20.73
2023-04-22T09:33:04.929Z,20.73
2023-04-22T09:35:35.350Z,20.73
2023-04-22T09:38:09.331Z,20.74
2023-04-22T09:40:38.777Z,20.72
2023-04-22T09:43:08.704Z,20.73
2023-04-22T09:45:38.004Z,20.74
2023-04-22T09:48:09.704Z,20.73
2023-04-22T09:50:39.098Z,20.74
2023-04-22T09:53:10.021Z,20.74
2023-04-22T09:55:41.483Z,20.75
2023-04-22T09:58:11.490Z,20.75
2023-04-22T10:00:47.203Z,20.74
2023-04-22T10:05:45.617Z,20.74
2023-04-22T10:08:16.996Z,20.75
2023-04-22T10:10:45.912Z,20.75
2023-04-22T10:13:14.062Z,20.74
2023-04-22T10:15:44.219Z,20.76
2023-04-22T10:18:15.108Z,20.76
2023-04-22T10:20:44.259Z,20.76
2023-04-22T10:23:19.158Z,20.78
2023-04-22T10:25:51.423Z,20.78
2023-04-22T10:28:24.123Z,20.79
2023-04-22T10:30:52.503Z,20.79
2023-04-22T10:33:40.018Z,20.78
2023-04-22T10:36:10.424Z,20.79
2023-04-22T10:38:41.657Z,20.80
2023-04-22T10:41:15.162Z,20.79
2023-04-22T10:43:44.798Z,20.81
2023-04-22T10:46:45.867Z,20.81
2023-04-22T10:49:15.576Z,20.80
2023-04-22T10:51:46.932Z,20.82
2023-04-22T10:55:02.689Z,20.82
2023-04-22T10:57:42.337Z,20.82
2023-04-22T11:00:41.697Z,20.83
2023-04-22T11:03:18.710Z,20.84
2023-04-22T11:05:47.147Z,20.83
2023-04-22T11:08:20.658Z,20.84
2023-04-22T11:10:51.705Z,20.83
2023-04-22T11:13:21.492Z,20.84
2023-04-22T11:15:51.527Z,20.83
2023-04-22T11:18:21.924Z,20.81
2023-04-22T11:20:51.241Z,20.80
2023-04-22T11:23:22.082Z,20.80
2023-04-22T11:25:55.672Z,20.81
2023-04-22T11:28:23.918Z,20.81
2023-04-22T11:30:52.482Z,20.81
2023-04-22T11:33:21.028Z,20.82
2023-04-22T11:35:50.783Z,20.83
2023-04-22T11:38:18.932Z,20.82
2023-04-22T11:40:47.675Z,20.85
2023-04-22T11:43:18.562Z,20.84
2023-04-22T11:45:49.793Z,20.83
2023-04-22T11:48:20.811Z,20.82
2023-04-22T11:50:48.924Z,20.83
2023-04-22T11:53:18.765Z,20.84
2023-04-22T11:55:50.929Z,20.85
2023-04-22T11:58:24.853Z,20.84
2023-04-22T12:00:54.501Z,20.85
2023-04-22T12:03:24.725Z,20.84
2023-04-22T12:05:55.181Z,20.85
2023-04-22T12:08:26.198Z,20.83
2023-04-22T12:10:56.929Z,20.84
2023-04-22T12:13:29.009Z,20.84
2023-04-22T12:16:00.188Z,20.84
2023-04-22T12:18:31.685Z,20.83
2023-04-22T12:21:09.371Z,20.83
2023-04-22T12:23:43.207Z,20.67
2023-04-22T12:26:11.586Z,20.64
2023-04-22T12:28:42.359Z,20.65
2023-04-22T12:31:10.787Z,20.66
2023-04-22T12:33:39.652Z,20.67
2023-04-22T12:36:08.453Z,20.68
2023-04-22T12:38:36.836Z,20.66
2023-04-22T12:41:05.369Z,20.65
2023-04-22T12:43:37.023Z,20.69
2023-04-22T12:46:08.342Z,20.71
2023-04-22T12:48:37.410Z,20.73
2023-04-22T12:51:06.471Z,20.74
2023-04-22T12:53:37.616Z,20.75
2023-04-22T12:56:05.866Z,20.76
2023-04-22T12:58:36.636Z,20.77
2023-04-22T13:01:06.200Z,20.77
2023-04-22T13:03:34.397Z,20.77
2023-04-22T13:06:05.427Z,20.79
2023-04-22T13:08:33.473Z,20.78
2023-04-22T13:11:01.424Z,20.79
2023-04-22T13:13:29.393Z,20.80
2023-04-22T13:15:57.436Z,20.80
2023-04-22T13:18:26.802Z,20.81
2023-04-22T13:20:56.831Z,20.82
2023-04-22T13:23:25.901Z,20.82
2023-04-22T13:25:54.500Z,20.83
2023-04-22T13:28:22.574Z,20.71
2023-04-22T13:30:50.742Z,20.63
2023-04-22T13:33:18.723Z,20.61
2023-04-22T13:35:48.015Z,20.61
2023-04-22T13:38:16.054Z,20.63
2023-04-22T13:40:43.984Z,20.66
2023-04-22T13:43:13.673Z,20.68
2023-04-22T13:45:42.770Z,20.69
2023-04-22T13:48:11.115Z,20.55
2023-04-22T13:50:42.605Z,20.49
2023-04-22T13:53:13.002Z,20.40
2023-04-22T13:55:43.336Z,20.34
2023-04-22T13:58:12.054Z,20.29
2023-04-22T14:00:40.048Z,20.27
2023-04-22T14:03:08.223Z,20.25
2023-04-22T14:05:36.971Z,20.23
2023-04-22T14:08:04.986Z,20.22
2023-04-22T14:10:34.392Z,20.20
2023-04-22T14:13:02.469Z,20.17
2023-04-22T14:15:30.493Z,20.17
2023-04-22T14:17:58.399Z,20.15
2023-04-22T14:20:27.850Z,20.12
2023-04-22T14:22:56.048Z,20.12
2023-04-22T14:25:26.599Z,20.10
2023-04-22T14:28:04.360Z,20.17
2023-04-22T14:30:32.424Z,20.22
2023-04-22T14:33:06.966Z,20.28
2023-04-22T14:35:35.156Z,20.33
2023-04-22T14:38:03.954Z,20.37
2023-04-22T14:40:32.015Z,20.42
2023-04-22T14:43:03.564Z,20.46
2023-04-22T14:45:32.398Z,20.40
2023-04-22T14:48:00.604Z,20.39
2023-04-22T14:50:28.754Z,20.41
2023-04-22T14:52:59.329Z,20.43
2023-04-22T14:55:27.853Z,20.47
2023-04-22T14:57:57.697Z,20.50
2023-04-22T15:00:30.237Z,20.52
2023-04-22T15:02:58.504Z,20.55
2023-04-22T15:05:28.375Z,20.57
2023-04-22T15:07:57.684Z,20.59
2023-04-22T15:10:26.354Z,20.60
2023-04-22T15:12:54.997Z,20.63
2023-04-22T15:15:22.998Z,20.64
2023-04-22T15:17:52.368Z,20.65
2023-04-22T15:20:20.447Z,20.66
2023-04-22T15:22:50.750Z,20.68
2023-04-22T15:25:18.900Z,20.70
2023-04-22T15:27:46.937Z,20.71
2023-04-22T15:30:15.139Z,20.72
2023-04-22T15:32:43.130Z,20.74
2023-04-22T15:35:12.691Z,20.75
2023-04-22T15:37:40.853Z,20.75
2023-04-22T15:40:10.112Z,20.79
2023-04-22T15:42:38.108Z,20.81
2023-04-22T15:45:09.922Z,20.83
2023-04-22T15:47:38.648Z,20.84
2023-04-22T15:50:09.230Z,20.88
2023-04-22T15:52:39.572Z,20.89
2023-04-22T15:55:09.433Z,20.91
2023-04-22T15:57:37.566Z,20.91
2023-04-22T16:00:11.680Z,20.91
2023-04-22T16:02:40.806Z,20.91
2023-04-22T16:05:09.351Z,20.91
2023-04-22T16:07:38.741Z,20.92
2023-04-22T16:10:07.928Z,20.92
2023-04-22T16:12:35.890Z,20.92
2023-04-22T16:15:04.026Z,20.92
2023-04-22T16:17:32.089Z,20.91
2023-04-22T16:20:03.097Z,20.92
2023-04-22T16:22:31.079Z,20.91
2023-04-22T16:25:00.482Z,20.92
2023-04-22T16:27:28.427Z,20.91
2023-04-22T16:29:56.333Z,20.91
2023-04-22T16:32:24.300Z,20.92
2023-04-22T16:34:52.295Z,20.92
2023-04-22T16:37:20.259Z,20.92
2023-04-22T16:39:48.270Z,20.87
2023-04-22T16:42:17.571Z,20.86
2023-04-22T16:44:45.817Z,20.85
2023-04-22T16:47:13.764Z,20.87
2023-04-22T16:49:42.060Z,20.87
2023-04-22T16:52:10.357Z,20.87
2023-04-22T16:54:38.428Z,20.87
2023-04-22T16:57:07.517Z,20.87
2023-04-22T16:59:39.486Z,20.87
2023-04-22T17:02:10.592Z,20.87
2023-04-22T17:04:38.616Z,20.87
2023-04-22T17:07:06.622Z,20.85
2023-04-22T17:09:34.575Z,20.85
2023-04-22T17:12:02.704Z,20.86
2023-04-22T17:14:31.113Z,20.83
2023-04-22T17:17:00.466Z,20.84
2023-04-22T17:19:28.390Z,20.83
2023-04-22T17:21:56.637Z,20.83
2023-04-22T17:24:24.989Z,20.83
2023-04-22T17:26:53.092Z,20.82
2023-04-22T17:29:21.839Z,20.82
2023-04-22T17:31:50.518Z,20.82
2023-04-22T17:34:19.939Z,20.82
2023-04-22T17:36:47.979Z,20.80
2023-04-22T17:39:16.022Z,20.80
2023-04-22T17:41:44.897Z,20.80
2023-04-22T17:44:15.920Z,20.79
2023-04-22T17:46:44.014Z,20.80
2023-04-22T17:49:12.072Z,20.80
2023-04-22T17:51:41.481Z,20.78
2023-04-22T17:54:09.479Z,20.79
2023-04-22T17:56:37.487Z,20.77
2023-04-22T17:59:05.472Z,20.78
2023-04-22T18:01:33.652Z,20.75
2023-04-22T18:04:01.753Z,20.77
2023-04-22T18:06:29.939Z,20.78
2023-04-22T18:08:59.299Z,20.77
2023-04-22T18:11:28.012Z,20.76
2023-04-22T18:13:56.094Z,20.76
2023-04-22T18:16:24.204Z,20.76
2023-04-22T18:18:52.235Z,20.76
2023-04-22T18:21:20.487Z,20.64
2023-04-22T18:23:48.558Z,20.64
2023-04-22T18:26:17.916Z,20.65
2023-04-22T18:28:45.838Z,20.66
2023-04-22T18:31:13.891Z,20.67
2023-04-22T18:33:41.961Z,20.67
2023-04-22T18:36:10.330Z,20.71
2023-04-22T18:38:38.927Z,20.72
2023-04-22T18:41:07.069Z,20.72
2023-04-22T18:43:36.740Z,20.71
2023-04-22T18:46:04.729Z,20.71
2023-04-22T18:48:32.745Z,20.72
2023-04-22T18:51:00.756Z,20.71
2023-04-22T18:53:28.722Z,20.72
2023-04-22T18:55:56.760Z,20.72
2023-04-22T18:58:24.810Z,20.73
2023-04-22T19:00:54.271Z,20.73
2023-04-22T19:03:22.454Z,20.73
2023-04-22T19:05:51.113Z,20.75
2023-04-22T19:08:19.084Z,20.76
2023-04-22T19:10:47.087Z,20.77
2023-04-22T19:13:28.506Z,20.76
2023-04-22T19:15:59.992Z,20.76
2023-04-22T19:18:28.064Z,20.73
2023-04-22T19:20:56.180Z,20.73
2023-04-22T19:23:24.272Z,20.73
2023-04-22T19:25:52.322Z,20.70
2023-04-22T19:28:20.329Z,20.68
2023-04-22T19:30:48.367Z,20.42
2023-04-22T19:33:17.724Z,20.46
2023-04-22T19:35:45.840Z,20.49
2023-04-22T19:38:19.066Z,20.52
2023-04-22T19:40:47.442Z,20.55
2023-04-22T19:43:17.026Z,20.60
2023-04-22T19:45:45.111Z,20.63
2023-04-22T19:48:18.593Z,20.65
2023-04-22T19:50:46.888Z,20.65
2023-04-22T19:53:15.038Z,20.67
2023-04-22T19:55:44.031Z,20.68
2023-04-22T19:58:12.302Z,20.67
2023-04-22T20:00:42.475Z,20.68
2023-04-22T20:03:13.212Z,20.69
2023-04-22T20:05:44.645Z,20.69
2023-04-22T20:08:14.670Z,20.69
2023-04-22T20:10:42.907Z,20.71
2023-04-22T20:13:11.594Z,20.71
2023-04-22T20:15:39.960Z,20.71
2023-04-22T20:18:08.467Z,20.71
2023-04-22T20:20:36.762Z,20.70
2023-04-22T20:23:10.450Z,20.71
2023-04-22T20:25:40.665Z,20.69
2023-04-22T20:28:10.664Z,20.71
2023-04-22T20:30:39.072Z,20.72
2023-04-22T20:33:12.385Z,20.72
2023-04-22T20:35:41.025Z,20.71
2023-04-22T20:38:15.154Z,20.72
2023-04-22T20:40:45.476Z,20.71
2023-04-22T20:43:14.073Z,20.72
2023-04-22T20:45:43.193Z,20.72
2023-04-22T20:48:13.987Z,20.71
2023-04-22T20:50:42.052Z,20.72
2023-04-22T20:53:10.185Z,20.72
2023-04-22T20:55:39.542Z,20.73
2023-04-22T20:58:07.472Z,20.72
2023-04-22T21:00:37.530Z,20.72
2023-04-22T21:03:09.599Z,20.72
2023-04-22T21:05:42.823Z,20.73
2023-04-22T21:08:22.873Z,20.72
2023-04-22T21:10:53.824Z,20.72
2023-04-22T21:13:22.972Z,20.72
2023-04-22T21:15:58.851Z,20.70
2023-04-22T21:18:27.808Z,20.41
2023-04-22T21:20:58.116Z,20.42
2023-04-22T21:23:26.742Z,20.47
2023-04-22T21:25:57.423Z,20.50
2023-04-22T21:28:26.337Z,20.53
2023-04-22T21:30:54.901Z,20.54
2023-04-22T21:33:25.239Z,20.57
2023-04-22T21:35:53.362Z,20.58
2023-04-22T21:38:21.787Z,20.57
2023-04-22T21:40:49.800Z,20.57
2023-04-22T21:43:22.316Z,20.58
2023-04-22T21:45:50.635Z,20.59
2023-04-22T21:48:18.815Z,20.58
2023-04-22T21:50:46.850Z,20.58
2023-04-22T21:53:14.831Z,20.58
2023-04-22T21:55:42.962Z,20.55
2023-04-22T21:58:10.916Z,20.54
2023-04-22T22:00:43.035Z,20.55
2023-04-22T22:03:12.618Z,20.53
2023-04-22T22:05:41.103Z,20.54
2023-04-22T22:08:09.379Z,20.54
2023-04-22T22:10:37.344Z,20.53
2023-04-22T22:13:05.352Z,20.53
2023-04-22T22:15:33.418Z,20.49
2023-04-22T22:18:04.176Z,20.52
2023-04-22T22:20:36.626Z,20.52
2023-04-22T22:23:04.629Z,20.52
2023-04-22T22:25:32.633Z,20.51
2023-04-22T22:28:00.569Z,20.50
2023-04-22T22:30:28.723Z,20.48
2023-04-22T22:32:56.696Z,20.48
2023-04-22T22:35:26.086Z,20.48
2023-04-22T22:37:53.994Z,20.47
2023-04-22T22:40:21.980Z,20.46
2023-04-22T22:42:52.678Z,20.45
2023-04-22T22:45:20.732Z,20.45
2023-04-22T22:47:48.764Z,20.44
2023-04-22T22:50:16.742Z,20.44
2023-04-22T22:52:46.173Z,20.44
2023-04-22T22:55:14.134Z,20.43
2023-04-22T22:57:42.676Z,20.43
2023-04-22T23:00:12.716Z,20.42
2023-04-22T23:02:40.955Z,20.41
2023-04-22T23:05:10.915Z,20.41
2023-04-22T23:07:39.040Z,20.40
2023-04-22T23:10:10.004Z,20.40
2023-04-22T23:12:38.032Z,20.40
2023-04-22T23:15:07.654Z,20.39
2023-04-22T23:17:37.263Z,20.39
2023-04-22T23:20:07.378Z,20.38
2023-04-22T23:22:37.466Z,20.37
2023-04-22T23:25:06.215Z,20.37
2023-04-22T23:27:36.219Z,20.37
2023-04-22T23:30:04.657Z,20.37
2023-04-22T23:32:33.378Z,20.36
2023-04-22T23:35:02.169Z,20.37
2023-04-22T23:37:30.850Z,20.39
2023-04-22T23:39:58.839Z,20.38
2023-04-22T23:42:26.752Z,20.37
2023-04-22T23:44:56.095Z,20.36
2023-04-22T23:47:23.963Z,20.36
2023-04-22T23:49:52.012Z,20.37
2023-04-22T23:52:20.741Z,20.36
2023-04-22T23:54:49.497Z,20.36
2023-04-22T23:57:17.868Z,20.36
2023-04-22T23:59:46.420Z,20.36
